Time;durP1;ratioP1;P1;durP2;ratioP2;P2;SDS_P1;SDS_P2;PMS_P1;PMS_P2;Temp;Humidity;BMP_temperature;BMP_pressure;BME280_temperature;BME280_humidity;BME280_pressure;Samples;Min_cycle;Max_cycle;Signal;HPM_P1;HPM_P2
2021/11/28 00:02:06;;;;;;;18.73;15.80;;;4.50;99.90;;;;;;5091168;28;20047;-69
2021/11/28 00:04:32;;;;;;;19.42;16.58;;;4.50;99.90;;;;;;5054998;28;20048;-69
2021/11/28 00:10:09;;;;;;;19.33;16.60;;;4.50;99.90;;;;;;5057157;28;20072;-69
2021/11/28 00:14:43;;;;;;;20.27;17.17;;;4.40;99.90;;;;;;5060083;28;20109;-70
2021/11/28 00:17:10;;;;;;;22.58;17.48;;;4.30;99.90;;;;;;5057062;28;20429;-69
2021/11/28 00:19:36;;;;;;;17.50;15.60;;;4.20;99.90;;;;;;5058298;28;20075;-69
2021/11/28 00:22:03;;;;;;;22.48;16.75;;;4.20;99.90;;;;;;5058123;28;20044;-69
2021/11/28 00:24:29;;;;;;;17.48;14.93;;;4.20;99.90;;;;;;5087623;28;20063;-69
2021/11/28 00:26:54;;;;;;;21.02;15.45;;;4.20;99.90;;;;;;5054471;28;20072;-70
2021/11/28 00:29:20;;;;;;;17.67;15.60;;;4.10;99.90;;;;;;5058701;28;20098;-69
2021/11/28 00:31:46;;;;;;;19.77;17.63;;;4.10;99.90;;;;;;5058863;28;20093;-70
2021/11/28 00:34:12;;;;;;;18.75;16.17;;;4.10;99.90;;;;;;5056609;28;20040;-69
2021/11/28 00:36:37;;;;;;;19.42;15.82;;;4.10;99.90;;;;;;5058450;28;20486;-70
2021/11/28 00:39:03;;;;;;;20.27;14.82;;;4.10;99.90;;;;;;5059534;28;20029;-69
2021/11/28 00:41:29;;;;;;;22.83;17.25;;;4.00;99.90;;;;;;5057277;28;20041;-70
2021/11/28 00:43:54;;;;;;;20.42;17.30;;;4.10;99.90;;;;;;5057673;28;20677;-69
2021/11/28 00:46:20;;;;;;;20.20;17.52;;;4.10;99.90;;;;;;5059369;28;20064;-70
2021/11/28 00:48:46;;;;;;;23.73;17.77;;;4.10;99.90;;;;;;5056882;28;20024;-70
2021/11/28 00:53:45;;;;;;;23.70;18.40;;;4.10;99.90;;;;;;5058990;28;20053;-69
2021/11/28 00:56:12;;;;;;;18.27;16.38;;;4.50;99.90;;;;;;5059492;28;20025;-70
2021/11/28 00:58:37;;;;;;;20.30;17.77;;;4.00;99.90;;;;;;5056789;28;20106;-69
2021/11/28 01:01:03;;;;;;;20.17;16.42;;;4.10;99.90;;;;;;5062019;28;20045;-69
2021/11/28 01:03:28;;;;;;;19.63;16.52;;;4.10;99.90;;;;;;5056713;28;20046;-69
2021/11/28 01:05:54;;;;;;;22.10;18.95;;;4.10;99.90;;;;;;5057703;28;20036;-69
2021/11/28 01:08:21;;;;;;;18.75;16.52;;;4.10;99.90;;;;;;5056927;28;20079;-70
2021/11/28 01:10:47;;;;;;;22.58;16.90;;;4.00;99.90;;;;;;5059926;28;20041;-70
2021/11/28 01:13:15;;;;;;;16.30;14.55;;;4.10;99.90;;;;;;5062366;28;20047;-70
2021/11/28 01:15:40;;;;;;;17.75;15.63;;;4.00;99.90;;;;;;5097773;28;20055;-69
2021/11/28 01:18:06;;;;;;;22.63;17.80;;;4.10;99.90;;;;;;5062885;28;20098;-70
2021/11/28 01:20:32;;;;;;;21.83;18.30;;;4.10;99.90;;;;;;5060179;28;20053;-70
2021/11/28 01:22:57;;;;;;;21.13;17.13;;;4.10;99.90;;;;;;5062182;28;20040;-70
2021/11/28 01:25:24;;;;;;;20.05;16.90;;;4.00;99.90;;;;;;5062286;28;20044;-69
2021/11/28 01:27:50;;;;;;;17.73;15.13;;;4.10;99.90;;;;;;5096107;28;20546;-69
2021/11/28 01:30:16;;;;;;;20.40;16.13;;;4.00;99.90;;;;;;5064207;28;20045;-69
2021/11/28 01:32:42;;;;;;;23.20;16.77;;;4.10;99.90;;;;;;5066409;28;20059;-69
2021/11/28 01:35:10;;;;;;;27.27;17.67;;;4.10;99.90;;;;;;5061507;28;20041;-69
2021/11/28 01:37:37;;;;;;;19.75;16.27;;;4.00;99.90;;;;;;5063206;28;20033;-69
2021/11/28 01:40:10;;;;;;;26.48;17.70;;;4.00;99.90;;;;;;5065763;28;20039;-69
2021/11/28 01:42:38;;;;;;;24.73;17.38;;;4.00;99.90;;;;;;5063282;28;20056;-69
2021/11/28 01:45:06;;;;;;;18.88;16.10;;;4.00;99.90;;;;;;5063160;28;20036;-70
2021/11/28 01:47:32;;;;;;;19.23;15.70;;;4.00;99.90;;;;;;5063004;28;20063;-70
2021/11/28 01:49:58;;;;;;;20.45;16.35;;;4.00;99.90;;;;;;5063455;28;20418;-69
2021/11/28 01:52:24;;;;;;;21.48;17.52;;;4.00;99.90;;;;;;5096343;28;20048;-69
2021/11/28 01:54:50;;;;;;;19.25;15.77;;;4.00;99.90;;;;;;5069518;28;20052;-70
2021/11/28 01:57:16;;;;;;;20.95;17.23;;;4.00;99.90;;;;;;5064857;28;20033;-70
2021/11/28 01:59:42;;;;;;;20.30;16.77;;;3.90;99.90;;;;;;5063901;28;20087;-70
2021/11/28 02:02:07;;;;;;;21.98;17.48;;;3.90;99.90;;;;;;5066491;28;20029;-69
2021/11/28 02:04:39;;;;;;;26.55;18.75;;;3.90;99.90;;;;;;5061595;28;20040;-69
2021/11/28 02:07:06;;;;;;;22.17;18.55;;;3.90;99.90;;;;;;5064312;28;20039;-69
2021/11/28 02:09:32;;;;;;;24.88;17.15;;;3.90;99.90;;;;;;5064619;28;20127;-69
2021/11/28 02:11:58;;;;;;;21.92;15.63;;;3.80;99.90;;;;;;5059451;28;20209;-70
2021/11/28 02:14:23;;;;;;;17.35;15.27;;;3.90;99.90;;;;;;5062689;28;20044;-70
2021/11/28 02:16:49;;;;;;;21.10;15.10;;;3.90;99.90;;;;;;5063098;28;20050;-70
2021/11/28 02:19:16;;;;;;;17.88;15.27;;;3.90;99.90;;;;;;5062016;28;20036;-70
2021/11/28 02:21:41;;;;;;;19.33;15.63;;;3.80;99.90;;;;;;5065322;28;20072;-70
2021/11/28 02:24:10;;;;;;;21.17;17.65;;;3.80;99.90;;;;;;5062707;28;20127;-69
2021/11/28 02:26:36;;;;;;;22.95;17.00;;;3.90;99.90;;;;;;5073208;28;20040;-69
2021/11/28 02:29:02;;;;;;;20.35;17.20;;;3.90;99.90;;;;;;5066115;28;20037;-70
2021/11/28 02:31:28;;;;;;;21.85;18.17;;;3.80;99.90;;;;;;5062738;28;20597;-70
2021/11/28 02:33:54;;;;;;;27.63;18.33;;;3.80;99.90;;;;;;5057029;28;20120;-70
2021/11/28 02:36:19;;;;;;;22.13;17.17;;;3.80;99.90;;;;;;5067944;28;20503;-69
2021/11/28 02:38:45;;;;;;;23.42;18.15;;;3.70;99.90;;;;;;5062818;28;20487;-69
2021/11/28 02:41:12;;;;;;;18.85;16.60;;;3.70;99.90;;;;;;5063342;28;20120;-70
2021/11/28 02:43:38;;;;;;;24.67;18.40;;;3.70;99.90;;;;;;5062716;28;20080;-69
2021/11/28 02:46:05;;;;;;;26.27;18.73;;;3.70;99.90;;;;;;5065550;28;20064;-70
2021/11/28 02:48:31;;;;;;;22.23;17.92;;;3.70;99.90;;;;;;5068459;28;20393;-70
2021/11/28 02:50:58;;;;;;;24.77;18.83;;;3.70;99.90;;;;;;5068761;28;20048;-70
2021/11/28 02:53:24;;;;;;;21.77;18.17;;;3.70;99.90;;;;;;5066270;28;20141;-69
2021/11/28 02:55:55;;;;;;;25.00;19.80;;;3.70;99.90;;;;;;5063367;28;20041;-70
2021/11/28 02:58:22;;;;;;;26.50;20.40;;;3.70;99.90;;;;;;5065754;28;20047;-70
2021/11/28 03:00:56;;;;;;;24.75;20.20;;;3.70;99.90;;;;;;5045621;28;20123;-70
2021/11/28 03:03:22;;;;;;;25.75;20.40;;;3.70;99.90;;;;;;5063695;28;20040;-70
2021/11/28 03:05:47;;;;;;;25.95;20.42;;;3.80;99.90;;;;;;5063539;28;20044;-70
2021/11/28 03:08:15;;;;;;;24.95;20.42;;;3.70;99.90;;;;;;5063492;28;20044;-70
2021/11/28 03:10:45;;;;;;;23.85;19.63;;;3.80;99.90;;;;;;5061378;28;20373;-70
2021/11/28 03:13:32;;;;;;;27.77;19.60;;;3.80;99.90;;;;;;5065981;28;20036;-70
2021/11/28 03:16:01;;;;;;;28.77;20.30;;;3.80;99.90;;;;;;5063243;28;20059;-69
2021/11/28 03:18:28;;;;;;;24.05;19.42;;;3.80;99.90;;;;;;5066753;28;20033;-69
2021/11/28 03:21:05;;;;;;;27.75;20.23;;;3.80;99.90;;;;;;5062380;28;20032;-70
2021/11/28 03:23:33;;;;;;;30.50;21.05;;;3.80;99.90;;;;;;5063413;28;20029;-70
2021/11/28 03:26:18;;;;;;;27.25;19.80;;;3.80;99.90;;;;;;5062264;28;20037;-71
2021/11/28 03:29:08;;;;;;;24.35;18.83;;;3.80;99.90;;;;;;5092936;28;20044;-70
2021/11/28 03:31:38;;;;;;;23.35;18.52;;;4.50;99.90;;;;;;5065136;28;20053;-70
2021/11/28 03:34:06;;;;;;;25.90;18.05;;;3.80;99.90;;;;;;5059116;28;20051;-69
2021/11/28 03:36:35;;;;;;;20.27;17.33;;;3.90;99.90;;;;;;5069136;28;20035;-69
2021/11/28 03:39:04;;;;;;;20.92;17.95;;;3.90;99.90;;;;;;5066315;28;20040;-70
2021/11/28 03:41:31;;;;;;;25.15;19.48;;;3.90;99.90;;;;;;5067012;28;20131;-70
2021/11/28 03:43:59;;;;;;;25.20;18.98;;;3.90;99.90;;;;;;5060960;28;20037;-70
2021/11/28 03:46:27;;;;;;;24.98;18.25;;;4.00;99.90;;;;;;5060481;28;20072;-70
2021/11/28 03:48:53;;;;;;;25.45;18.13;;;4.00;99.90;;;;;;5066300;28;20044;-70
2021/11/28 03:51:18;;;;;;;22.55;18.13;;;3.90;99.90;;;;;;5047018;28;20521;-70
2021/11/28 03:53:44;;;;;;;26.67;20.10;;;3.90;99.90;;;;;;5057073;28;20410;-70
2021/11/28 03:56:10;;;;;;;25.55;20.13;;;4.00;99.90;;;;;;5094867;28;20509;-70
2021/11/28 03:58:37;;;;;;;24.35;19.98;;;3.90;99.90;;;;;;5087138;28;20773;-69
2021/11/28 04:01:05;;;;;;;26.95;18.95;;;3.90;99.90;;;;;;5059580;28;20040;-70
2021/11/28 04:03:31;;;;;;;25.02;18.75;;;3.90;99.90;;;;;;5061934;28;20051;-70
2021/11/28 04:05:57;;;;;;;26.45;18.75;;;3.90;99.90;;;;;;5066821;28;20040;-69
2021/11/28 04:08:23;;;;;;;23.25;17.73;;;3.80;99.90;;;;;;5046733;28;20098;-70
2021/11/28 04:10:49;;;;;;;24.85;19.50;;;3.80;99.90;;;;;;5059466;28;20047;-70
2021/11/28 04:13:15;;;;;;;25.00;17.30;;;3.70;99.90;;;;;;5061417;28;20078;-70
2021/11/28 04:15:41;;;;;;;23.95;18.13;;;3.70;99.90;;;;;;5058868;28;20566;-70
2021/11/28 04:18:07;;;;;;;29.42;19.10;;;3.60;99.90;;;;;;5057355;28;20079;-70
2021/11/28 04:20:33;;;;;;;25.23;19.67;;;3.50;99.90;;;;;;5060029;28;20032;-69
2021/11/28 04:23:00;;;;;;;24.02;17.85;;;3.40;99.90;;;;;;5059458;28;20125;-70
2021/11/28 04:25:26;;;;;;;23.42;18.40;;;3.50;99.90;;;;;;5071816;28;20045;-70
2021/11/28 04:27:52;;;;;;;19.98;17.15;;;3.30;99.90;;;;;;5062711;28;20036;-69
2021/11/28 04:30:18;;;;;;;22.55;16.98;;;3.30;99.90;;;;;;5062698;28;20037;-70
2021/11/28 04:32:44;;;;;;;20.77;16.20;;;3.20;99.90;;;;;;5062364;28;20033;-69
2021/11/28 04:35:10;;;;;;;19.55;15.93;;;3.20;99.90;;;;;;5058282;28;20052;-70
2021/11/28 04:37:36;;;;;;;23.58;16.92;;;3.10;99.90;;;;;;5089664;28;20040;-70
2021/11/28 04:40:03;;;;;;;20.30;15.55;;;3.10;99.90;;;;;;5056046;28;20410;-70
2021/11/28 04:42:29;;;;;;;24.88;17.83;;;3.20;99.90;;;;;;5057513;28;20541;-70
2021/11/28 04:44:55;;;;;;;28.27;16.85;;;3.10;99.90;;;;;;5059624;28;20036;-70
2021/11/28 04:47:21;;;;;;;23.23;16.98;;;3.00;99.90;;;;;;5058870;28;20078;-70
2021/11/28 04:49:48;;;;;;;25.38;18.45;;;2.90;99.90;;;;;;5057568;28;20043;-70
2021/11/28 04:52:14;;;;;;;28.38;19.83;;;2.90;99.90;;;;;;5055487;28;20456;-70
2021/11/28 04:54:39;;;;;;;22.42;17.63;;;2.90;99.90;;;;;;5060042;28;20073;-70
2021/11/28 04:57:06;;;;;;;22.58;18.25;;;2.80;99.90;;;;;;5061400;28;20029;-69
2021/11/28 04:59:32;;;;;;;28.08;18.48;;;2.90;99.90;;;;;;5060371;28;20525;-70
2021/11/28 05:01:57;;;;;;;22.90;17.70;;;2.80;99.90;;;;;;5090410;28;20124;-69
2021/11/28 05:04:23;;;;;;;28.70;19.70;;;2.80;99.90;;;;;;5057882;28;20055;-70
2021/11/28 05:06:49;;;;;;;30.23;17.90;;;2.80;99.90;;;;;;5057956;28;20127;-70
2021/11/28 05:09:15;;;;;;;27.67;19.10;;;2.70;99.90;;;;;;5059689;28;20098;-70
2021/11/28 05:11:41;;;;;;;18.92;16.83;;;2.70;99.90;;;;;;5055743;28;20170;-69
2021/11/28 05:14:07;;;;;;;29.23;19.23;;;2.70;99.90;;;;;;5063982;28;20044;-70
2021/11/28 05:16:33;;;;;;;22.85;17.02;;;2.60;99.90;;;;;;5055455;28;20029;-70
2021/11/28 05:19:00;;;;;;;24.42;18.15;;;2.60;99.90;;;;;;5088752;28;20040;-70
2021/11/28 05:21:25;;;;;;;27.15;18.88;;;2.60;99.90;;;;;;5061786;28;20137;-70
2021/11/28 05:23:51;;;;;;;25.35;17.95;;;2.50;99.90;;;;;;5062085;28;20064;-70
2021/11/28 05:26:17;;;;;;;23.02;16.38;;;2.50;99.90;;;;;;5063690;28;20071;-70
2021/11/28 05:28:43;;;;;;;24.55;18.02;;;2.60;99.90;;;;;;5060231;28;20037;-70
2021/11/28 05:31:11;;;;;;;24.92;17.77;;;2.70;99.90;;;;;;5058964;28;20040;-70
2021/11/28 05:33:37;;;;;;;25.38;19.10;;;2.50;99.90;;;;;;5089436;28;20037;-70
2021/11/28 05:36:03;;;;;;;22.35;17.70;;;2.50;99.90;;;;;;5055325;28;20542;-70
2021/11/28 05:38:29;;;;;;;24.20;18.33;;;2.40;99.90;;;;;;5058873;28;20040;-70
2021/11/28 05:40:54;;;;;;;23.10;18.15;;;2.40;99.90;;;;;;5056313;28;20047;-70
2021/11/28 05:43:20;;;;;;;30.50;19.90;;;2.40;99.90;;;;;;5059073;28;20146;-70
2021/11/28 05:45:46;;;;;;;34.25;20.90;;;2.40;99.90;;;;;;5057216;28;20166;-70
2021/11/28 05:48:11;;;;;;;23.65;17.70;;;2.40;99.90;;;;;;5061715;28;20044;-70
2021/11/28 05:50:37;;;;;;;37.05;20.70;;;2.30;99.90;;;;;;5057921;28;20362;-70
2021/11/28 05:53:03;;;;;;;25.83;18.85;;;2.30;99.90;;;;;;5056637;28;20029;-70
2021/11/28 05:55:28;;;;;;;26.10;18.95;;;2.30;99.90;;;;;;5058638;28;20123;-70
2021/11/28 05:57:54;;;;;;;35.90;21.02;;;2.40;99.90;;;;;;5059481;28;20143;-69
2021/11/28 06:00:22;;;;;;;28.30;20.42;;;2.30;99.90;;;;;;5060573;28;20080;-70
2021/11/28 06:02:47;;;;;;;24.02;18.08;;;2.30;99.90;;;;;;5062474;28;20035;-70
2021/11/28 06:05:14;;;;;;;30.63;20.38;;;2.30;99.90;;;;;;5063138;28;20041;-70
2021/11/28 06:07:40;;;;;;;27.27;19.35;;;2.30;99.90;;;;;;5060631;28;20040;-70
2021/11/28 06:10:06;;;;;;;25.55;17.98;;;2.30;99.90;;;;;;5060038;28;20036;-70
2021/11/28 06:12:33;;;;;;;31.15;20.13;;;2.30;99.90;;;;;;5058813;28;20094;-70
2021/11/28 06:14:58;;;;;;;28.17;19.48;;;2.20;99.90;;;;;;5059354;28;20297;-70
2021/11/28 06:17:24;;;;;;;27.25;19.20;;;2.20;99.90;;;;;;5063149;28;20218;-70
2021/11/28 06:19:50;;;;;;;31.73;21.42;;;2.20;99.90;;;;;;5062082;28;20037;-70
2021/11/28 06:22:15;;;;;;;35.58;22.67;;;2.30;99.90;;;;;;5063179;28;20115;-70
2021/11/28 06:24:41;;;;;;;29.05;20.50;;;2.20;99.90;;;;;;5062187;28;20048;-70
2021/11/28 06:27:08;;;;;;;29.80;22.75;;;2.20;99.90;;;;;;5064867;28;20033;-70
2021/11/28 06:29:34;;;;;;;34.38;22.67;;;2.20;99.90;;;;;;5060476;28;20040;-70
2021/11/28 06:32:00;;;;;;;44.45;25.80;;;2.20;99.90;;;;;;5058334;28;20126;-70
2021/11/28 06:34:27;;;;;;;35.58;22.52;;;2.30;99.90;;;;;;5056644;28;20047;-70
2021/11/28 06:36:54;;;;;;;38.80;24.63;;;2.30;99.90;;;;;;5090330;28;20175;-70
2021/11/28 06:39:20;;;;;;;35.95;23.90;;;2.30;99.90;;;;;;5059231;28;20113;-70
2021/11/28 06:41:46;;;;;;;36.17;24.42;;;2.30;99.90;;;;;;5057470;28;20036;-70
2021/11/28 06:44:12;;;;;;;37.45;24.30;;;2.30;99.90;;;;;;5059160;28;20048;-70
2021/11/28 06:46:38;;;;;;;46.13;24.73;;;2.40;99.90;;;;;;5058315;28;20045;-70
2021/11/28 06:49:04;;;;;;;36.90;24.35;;;2.40;99.90;;;;;;5059428;28;20028;-70
2021/11/28 06:51:30;;;;;;;36.95;23.15;;;2.30;99.90;;;;;;5059435;28;20075;-70
2021/11/28 06:53:56;;;;;;;40.75;24.25;;;2.30;99.90;;;;;;5056656;28;20087;-70
2021/11/28 06:56:21;;;;;;;35.65;23.08;;;2.30;99.90;;;;;;5057503;28;20539;-69
2021/11/28 06:58:47;;;;;;;72.47;25.50;;;2.40;99.90;;;;;;5061374;28;20044;-70
2021/11/28 07:01:13;;;;;;;40.83;20.75;;;2.30;99.90;;;;;;5061106;28;20032;-69
2021/11/28 07:03:39;;;;;;;44.70;20.40;;;2.30;99.90;;;;;;5060551;28;20032;-70
2021/11/28 07:06:06;;;;;;;54.08;23.33;;;2.40;99.90;;;;;;5060706;28;20037;-70
2021/11/28 07:08:32;;;;;;;38.63;21.95;;;2.30;99.90;;;;;;5059568;28;20505;-70
2021/11/28 07:10:58;;;;;;;34.83;20.75;;;2.30;99.90;;;;;;5057879;28;20066;-69
2021/11/28 07:13:25;;;;;;;43.50;22.88;;;2.30;99.90;;;;;;5055849;28;20052;-70
2021/11/28 07:15:51;;;;;;;41.00;21.65;;;2.30;99.90;;;;;;5057513;28;20032;-70
2021/11/28 07:18:17;;;;;;;36.00;22.30;;;2.30;99.90;;;;;;5060082;28;20382;-70
2021/11/28 07:20:43;;;;;;;57.35;21.90;;;2.30;99.90;;;;;;5056836;28;20043;-70
2021/11/28 07:23:09;;;;;;;46.17;23.77;;;2.30;99.90;;;;;;5060204;28;20025;-69
2021/11/28 07:25:35;;;;;;;28.67;20.45;;;2.30;99.90;;;;;;5058764;28;20045;-70
2021/11/28 07:28:02;;;;;;;36.22;20.95;;;2.30;99.90;;;;;;5060371;28;20130;-69
2021/11/28 07:30:29;;;;;;;32.78;20.52;;;2.40;99.90;;;;;;5060230;28;20047;-67
2021/11/28 07:32:56;;;;;;;29.02;19.20;;;2.50;99.90;;;;;;5057057;28;20105;-67
2021/11/28 07:35:21;;;;;;;27.30;18.40;;;2.40;99.90;;;;;;5060516;28;20623;-67
2021/11/28 07:37:47;;;;;;;28.55;19.30;;;2.50;99.90;;;;;;5062188;28;20107;-67
2021/11/28 07:40:14;;;;;;;22.60;15.88;;;2.50;99.90;;;;;;5059697;28;20060;-67
2021/11/28 07:42:40;;;;;;;25.42;17.70;;;2.60;99.90;;;;;;5059761;28;20052;-67
2021/11/28 07:45:07;;;;;;;23.02;17.23;;;2.60;99.90;;;;;;5090535;28;20036;-67
2021/11/28 07:47:33;;;;;;;28.00;16.85;;;2.60;99.90;;;;;;5059977;28;20044;-67
2021/11/28 07:49:59;;;;;;;28.88;19.00;;;2.70;99.90;;;;;;5058542;28;20051;-68
2021/11/28 07:52:24;;;;;;;29.05;19.30;;;2.70;99.90;;;;;;5057500;28;20324;-67
2021/11/28 07:54:50;;;;;;;30.15;19.90;;;2.70;99.90;;;;;;5056859;28;20416;-67
2021/11/28 07:57:16;;;;;;;32.25;20.25;;;2.70;99.90;;;;;;5076642;28;20044;-67
2021/11/28 07:59:42;;;;;;;42.42;20.08;;;2.80;99.90;;;;;;5057041;28;20123;-67
2021/11/28 08:02:08;;;;;;;30.20;18.08;;;2.80;99.90;;;;;;5057120;28;20037;-67
2021/11/28 08:04:34;;;;;;;21.85;15.80;;;2.80;99.90;;;;;;5055886;28;20466;-67
2021/11/28 08:07:00;;;;;;;27.45;17.90;;;2.90;99.90;;;;;;5059883;28;20067;-67
2021/11/28 08:09:26;;;;;;;27.85;18.15;;;2.90;99.90;;;;;;5055006;28;20170;-67
2021/11/28 08:11:51;;;;;;;24.88;16.10;;;3.00;99.90;;;;;;5059334;28;21509;-67
2021/11/28 08:14:17;;;;;;;23.08;15.75;;;3.10;99.90;;;;;;5055189;28;20040;-67
2021/11/28 08:16:43;;;;;;;20.00;14.82;;;3.20;99.90;;;;;;5058612;28;20070;-68
2021/11/28 08:19:09;;;;;;;17.80;13.27;;;3.20;99.90;;;;;;5056897;28;20043;-67
2021/11/28 08:21:35;;;;;;;24.25;13.43;;;3.20;99.90;;;;;;5055846;28;20032;-67
2021/11/28 08:24:04;;;;;;;18.20;14.20;;;3.20;99.90;;;;;;5089131;28;20503;-68
2021/11/28 08:26:30;;;;;;;18.92;13.23;;;3.30;99.90;;;;;;5058690;28;20112;-67
2021/11/28 08:28:56;;;;;;;16.15;13.00;;;3.30;99.90;;;;;;5060752;28;20041;-67
2021/11/28 08:31:22;;;;;;;15.55;12.05;;;3.30;99.90;;;;;;5058211;28;20051;-67
2021/11/28 08:33:48;;;;;;;14.27;12.07;;;3.40;99.90;;;;;;5057568;28;20094;-68
2021/11/28 08:36:18;;;;;;;13.52;11.98;;;3.50;99.90;;;;;;5060658;28;20445;-67
2021/11/28 08:38:44;;;;;;;14.73;10.98;;;3.50;99.90;;;;;;5059300;28;20711;-67
2021/11/28 08:41:11;;;;;;;12.40;10.20;;;3.50;99.90;;;;;;5089834;28;20132;-68
2021/11/28 08:43:38;;;;;;;10.32;9.23;;;3.60;99.90;;;;;;5058301;28;20040;-67
2021/11/28 08:46:04;;;;;;;10.95;9.55;;;3.70;99.90;;;;;;5055337;28;20041;-67
2021/11/28 08:48:30;;;;;;;16.42;10.73;;;3.70;99.90;;;;;;5093398;28;20094;-67
2021/11/28 08:50:56;;;;;;;9.75;8.75;;;3.70;99.90;;;;;;5057036;28;20570;-67
2021/11/28 08:53:21;;;;;;;10.57;8.43;;;3.80;99.90;;;;;;5058941;28;20059;-68
2021/11/28 08:55:47;;;;;;;9.27;8.18;;;3.80;99.90;;;;;;5058257;28;20043;-67
2021/11/28 08:58:13;;;;;;;9.07;7.00;;;3.90;99.90;;;;;;5058106;28;20048;-67
2021/11/28 09:00:38;;;;;;;8.00;7.20;;;3.90;99.90;;;;;;5090150;28;20127;-67
2021/11/28 09:03:04;;;;;;;11.18;8.27;;;3.90;99.90;;;;;;5057360;28;20728;-67
2021/11/28 09:05:30;;;;;;;14.38;7.95;;;4.10;99.90;;;;;;5092602;28;20041;-67
2021/11/28 09:07:57;;;;;;;8.73;7.18;;;4.20;99.90;;;;;;5058459;28;20098;-67
2021/11/28 09:10:23;;;;;;;8.18;6.45;;;4.30;99.90;;;;;;5058189;28;20087;-67
2021/11/28 09:12:49;;;;;;;7.47;6.25;;;4.20;99.90;;;;;;5057200;28;20080;-67
2021/11/28 09:15:16;;;;;;;7.55;6.10;;;4.40;99.90;;;;;;5055443;28;20048;-68
2021/11/28 09:17:49;;;;;;;6.72;5.63;;;4.60;99.90;;;;;;5056771;28;20076;-67
2021/11/28 09:20:18;;;;;;;9.38;5.53;;;4.60;99.90;;;;;;5058037;28;20066;-67
2021/11/28 09:25:17;;;;;;;6.95;4.43;;;4.80;99.90;;;;;;5056255;28;20060;-67
2021/11/28 09:27:45;;;;;;;6.00;4.05;;;4.80;99.90;;;;;;5060294;28;20049;-67
2021/11/28 09:30:13;;;;;;;4.25;3.85;;;4.90;99.90;;;;;;5055881;28;20051;-67
2021/11/28 09:32:39;;;;;;;5.65;2.38;;;5.00;99.90;;;;;;5059049;28;20083;-67
2021/11/28 09:35:05;;;;;;;5.03;2.08;;;5.10;99.90;;;;;;5063482;28;20160;-67
2021/11/28 09:37:31;;;;;;;2.70;1.77;;;5.20;99.90;;;;;;5064456;28;20047;-67
2021/11/28 09:39:57;;;;;;;2.83;1.50;;;5.30;99.90;;;;;;5071139;28;20041;-68
2021/11/28 09:42:29;;;;;;;3.13;1.17;;;5.40;99.90;;;;;;5067535;28;20067;-67
2021/11/28 09:44:57;;;;;;;2.67;1.08;;;5.50;99.90;;;;;;5068019;28;20094;-68
2021/11/28 09:47:25;;;;;;;3.92;1.20;;;5.50;99.90;;;;;;5064418;28;20040;-68
2021/11/28 09:49:51;;;;;;;2.85;0.80;;;5.50;99.90;;;;;;5064379;28;20540;-68
2021/11/28 09:52:23;;;;;;;1.67;0.80;;;5.50;99.90;;;;;;5068841;28;20097;-68
2021/11/28 09:54:54;;;;;;;3.00;0.82;;;5.60;99.90;;;;;;5064272;28;20106;-68
2021/11/28 09:57:21;;;;;;;1.48;0.30;;;5.60;99.90;;;;;;5061520;28;20036;-68
2021/11/28 09:59:48;;;;;;;1.63;0.32;;;5.60;99.90;;;;;;5062614;28;20541;-68
2021/11/28 10:02:26;;;;;;;0.73;0.40;;;5.50;99.90;;;;;;5078949;28;20047;-67
2021/11/28 10:04:52;;;;;;;2.28;0.40;;;5.50;99.90;;;;;;5062075;28;20043;-67
2021/11/28 10:07:18;;;;;;;0.82;0.20;;;5.50;99.90;;;;;;5065675;28;20071;-67
2021/11/28 10:09:45;;;;;;;1.95;0.40;;;5.50;99.90;;;;;;5065354;28;20075;-67
2021/11/28 10:12:31;;;;;;;2.55;0.30;;;5.50;99.90;;;;;;5060103;28;20144;-67
2021/11/28 10:15:03;;;;;;;;;;;5.50;99.90;;;;;;5058490;28;20052;-67
2021/11/28 10:17:33;;;;;;;0.70;0.50;;;5.50;99.90;;;;;;5061950;28;19920;-67
2021/11/28 10:20:02;;;;;;;1.80;0.40;;;5.40;99.90;;;;;;5064907;28;20036;-70
2021/11/28 10:22:28;;;;;;;1.73;0.20;;;5.50;99.90;;;;;;5065061;28;20044;-68
2021/11/28 10:25:04;;;;;;;8.57;0.30;;;5.50;99.90;;;;;;5064477;28;20041;-66
2021/11/28 10:27:33;;;;;;;;;;;5.40;99.90;;;;;;5063420;28;20123;-66
2021/11/28 10:29:58;;;;;;;1.27;0.20;;;5.40;99.90;;;;;;5064522;28;19942;-66
2021/11/28 10:32:25;;;;;;;0.95;0.22;;;5.40;99.90;;;;;;5063434;28;20040;-66
2021/11/28 10:34:50;;;;;;;1.08;0.28;;;5.40;99.90;;;;;;5062134;28;20044;-66
2021/11/28 10:37:19;;;;;;;1.60;0.25;;;5.40;99.90;;;;;;5067082;28;20120;-66
2021/11/28 10:39:46;;;;;;;0.95;0.20;;;5.40;99.90;;;;;;5059101;28;20090;-66
2021/11/28 10:42:25;;;;;;;2.50;0.38;;;5.30;99.90;;;;;;5064231;28;20032;-66
2021/11/28 10:45:11;;;;;;;1.85;0.20;;;5.40;99.90;;;;;;5059084;28;20068;-66
2021/11/28 10:47:45;;;;;;;2.13;0.40;;;5.30;99.90;;;;;;5065728;28;20048;-66
2021/11/28 10:50:16;;;;;;;2.05;0.17;;;5.20;99.90;;;;;;5064855;28;20056;-66
2021/11/28 10:52:44;;;;;;;0.60;0.10;;;5.30;99.90;;;;;;5064503;28;20770;-66
2021/11/28 10:55:16;;;;;;;0.65;0.10;;;5.40;99.90;;;;;;5062925;28;20692;-66
2021/11/28 10:57:43;;;;;;;1.45;0.10;;;5.30;99.90;;;;;;5065170;28;20053;-66
2021/11/28 11:00:11;;;;;;;1.15;0.40;;;5.30;99.90;;;;;;5059545;28;20489;-66
2021/11/28 11:02:39;;;;;;;0.60;0.20;;;5.40;99.90;;;;;;5055897;28;20059;-66
2021/11/28 11:05:22;;;;;;;2.63;0.20;;;5.40;99.90;;;;;;5056294;28;20040;-66
2021/11/28 11:07:54;;;;;;;0.20;0.10;;;5.40;99.90;;;;;;5056745;28;20056;-66
2021/11/28 11:10:24;;;;;;;1.50;0.10;;;5.40;99.90;;;;;;5060246;28;20063;-66
2021/11/28 11:12:51;;;;;;;0.60;0.30;;;5.40;99.90;;;;;;5063115;28;20060;-66
2021/11/28 11:15:30;;;;;;;0.40;0.20;;;5.30;99.90;;;;;;5062099;28;20131;-66
2021/11/28 11:18:00;;;;;;;0.75;0.10;;;5.30;99.90;;;;;;5059488;28;20048;-66
2021/11/28 11:20:30;;;;;;;3.20;0.20;;;5.40;99.90;;;;;;5060816;28;20043;-66
2021/11/28 11:22:56;;;;;;;9.13;0.50;;;5.50;99.90;;;;;;5062922;28;20067;-66
2021/11/28 11:25:34;;;;;;;1.55;0.50;;;5.60;99.90;;;;;;5062498;28;20511;-66
2021/11/28 11:28:13;;;;;;;0.10;0.03;;;5.80;99.90;;;;;;5061390;28;20041;-66
2021/11/28 11:30:41;;;;;;;1.70;0.10;;;5.80;99.90;;;;;;5059751;28;20052;-66
2021/11/28 11:33:08;;;;;;;0.15;0.10;;;5.90;99.90;;;;;;5054276;28;21600;-66
2021/11/28 11:35:40;;;;;;;4.05;0.38;;;6.00;99.90;;;;;;5056484;28;20064;-66
2021/11/28 11:38:17;;;;;;;2.92;0.32;;;5.90;99.90;;;;;;5058396;28;20036;-66
2021/11/28 11:40:44;;;;;;;0.38;0.10;;;5.90;99.90;;;;;;5060227;28;20037;-66
2021/11/28 11:43:10;;;;;;;1.77;0.22;;;5.90;99.90;;;;;;5061273;28;20052;-66
2021/11/28 11:45:38;;;;;;;2.78;0.20;;;5.80;99.90;;;;;;5064840;28;20130;-66
2021/11/28 11:48:06;;;;;;;1.60;0.03;;;5.80;99.90;;;;;;5060578;28;20044;-65
2021/11/28 11:50:35;;;;;;;2.53;0.45;;;5.70;99.90;;;;;;5058107;28;20441;-66
2021/11/28 11:53:01;;;;;;;5.40;0.30;;;5.70;99.90;;;;;;5090547;28;20032;-65
2021/11/28 11:55:31;;;;;;;1.15;0.10;;;5.60;99.90;;;;;;5056872;28;20052;-66
2021/11/28 11:58:25;;;;;;;1.10;0.20;;;5.60;99.90;;;;;;5054810;28;20040;-66
2021/11/28 12:01:18;;;;;;;0.93;0.10;;;5.60;99.90;;;;;;5054149;28;21696;-66
2021/11/28 12:03:50;;;;;;;0.82;0.10;;;5.60;99.90;;;;;;5055419;28;20048;-65
2021/11/28 12:06:16;;;;;;;0.80;0.10;;;5.60;99.90;;;;;;5055226;28;20135;-66
2021/11/28 12:08:53;;;;;;;1.88;0.10;;;5.60;99.90;;;;;;5061823;28;20033;-66
2021/11/28 12:11:22;;;;;;;3.33;0.50;;;5.60;99.90;;;;;;5055056;28;20056;-65
2021/11/28 12:13:53;;;;;;;2.13;0.10;;;5.50;99.90;;;;;;5087496;28;20040;-66
2021/11/28 12:16:20;;;;;;;2.88;0.30;;;5.50;99.90;;;;;;5054851;28;20125;-66
2021/11/28 12:18:50;;;;;;;0.77;0.10;;;5.50;99.90;;;;;;5056145;28;20074;-66
2021/11/28 12:21:15;;;;;;;0.73;0.10;;;5.40;99.90;;;;;;5055383;28;20183;-66
2021/11/28 12:24:04;;;;;;;1.83;0.13;;;5.40;99.90;;;;;;5057554;28;20158;-66
2021/11/28 12:26:30;;;;;;;4.05;0.17;;;5.40;99.90;;;;;;5059300;28;21449;-66
2021/11/28 12:29:15;;;;;;;1.52;0.10;;;5.40;99.90;;;;;;5058719;28;20679;-66
2021/11/28 12:31:49;;;;;;;0.73;0.08;;;5.40;99.90;;;;;;5059896;28;20583;-66
2021/11/28 12:34:19;;;;;;;2.10;0.10;;;5.40;99.90;;;;;;5091906;28;20057;-66
2021/11/28 12:36:47;;;;;;;3.83;0.10;;;5.40;99.90;;;;;;5058524;28;20049;-66
2021/11/28 12:39:16;;;;;;;3.08;0.30;;;5.30;99.90;;;;;;5057789;28;20037;-65
2021/11/28 12:41:51;;;;;;;1.70;0.10;;;5.40;99.90;;;;;;5077874;28;20053;-66
2021/11/28 12:44:19;;;;;;;3.83;0.20;;;5.40;99.90;;;;;;5062666;28;20082;-65
2021/11/28 12:46:54;;;;;;;3.97;0.20;;;5.40;99.90;;;;;;5056369;28;20855;-65
2021/11/28 12:49:30;;;;;;;2.93;0.60;;;5.40;99.90;;;;;;5065556;28;20387;-66
2021/11/28 12:52:25;;;;;;;4.00;0.20;;;5.40;99.90;;;;;;5060466;28;20302;-65
2021/11/28 12:55:26;;;;;;;0.50;0.17;;;5.50;99.90;;;;;;5065673;28;20059;-66
2021/11/28 12:58:01;;;;;;;1.80;0.20;;;5.40;99.90;;;;;;5061785;28;20423;-66